Terminal Aerodrome Forecast
Issued by NWS Knoxville/Tri Cities, TN

Home | Current Version | Previous Version | Text Only | Print | Product List | Glossary On
Versions: 1 2 3 4 5 6 7 8 9 10 11 12 13 14 15 16 17 18 19 20 21 22 23 24 25 26 27 28 29 30 31 32 33 34 35 36 37
000
FTUS44 KMRX 021130
TAFTRI
TAF
KTRI 021130Z 0212/0312 00000KT 3SM BR FEW006
      TEMPO 0212/0213 1SM BR SCT006
     FM021400 00000KT P6SM SKC
     FM030600 00000KT 6SM BR SKC
     FM030900 00000KT 4SM BR SCT250
     FM031100 00000KT 2SM BR BKN100=

USA.gov is the U.S. government's official web portal to all federal, state and local government web resources and services.